Time;durP1;ratioP1;P1;durP2;ratioP2;P2;SDS_P1;SDS_P2;PMS_P1;PMS_P2;Temp;Humidity;BMP_temperature;BMP_pressure;BME280_temperature;BME280_humidity;BME280_pressure;Samples;Min_cycle;Max_cycle;Signal;HPM_P1;HPM_P2
2022/10/17 00:00:33;;;;;;;;;;;;;;;14.29;86.56;98625.34;5065995;28;20304;-57
2022/10/17 00:05:56;;;;;;;;;;;;;;;14.25;86.58;98629.84;5051551;28;19925;-57
2022/10/17 00:08:50;;;;;;;;;;;;;;;14.27;86.76;98628.38;5069367;28;19932;-57
2022/10/17 00:11:19;;;;;;;;;;;;;;;14.26;86.80;98634.19;5085205;28;19940;-57
2022/10/17 00:13:48;;;;;;;;;;;;;;;14.23;86.68;98634.81;5072875;28;19994;-57
2022/10/17 00:16:15;;;;;;;;;;;;;;;14.22;86.78;98638.66;5057055;28;19928;-57
2022/10/17 00:18:44;;;;;;;;;;;;;;;14.20;86.65;98635.44;5065653;28;19925;-57
2022/10/17 00:21:16;;;;;;;;;;;;;;;14.16;86.91;98636.06;5066676;28;20439;-57
2022/10/17 00:23:44;;;;;;;;;;;;;;;14.19;86.90;98634.66;5072209;28;19924;-57
2022/10/17 00:26:12;;;;;;;;;;;;;;;14.17;87.04;98636.91;5070613;28;19929;-57
2022/10/17 00:28:40;;;;;;;;;;;;;;;14.15;86.93;98645.41;5072052;28;19936;-57
2022/10/17 00:31:10;;;;;;;;;;;;;;;14.14;87.00;98638.31;5061296;28;19979;-57
2022/10/17 00:33:38;;;;;;;;;;;;;;;14.16;87.19;98640.72;5052540;28;19929;-57
2022/10/17 00:36:09;;;;;;;;;;;;;;;14.12;87.15;98640.59;5035980;28;19925;-57
2022/10/17 00:39:02;;;;;;;;;;;;;;;14.11;87.22;98635.41;5036871;28;19937;-57
2022/10/17 00:41:32;;;;;;;;;;;;;;;14.09;87.35;98635.75;5030866;28;19925;-57
2022/10/17 00:44:00;;;;;;;;;;;;;;;14.04;87.27;98638.63;5057328;28;19931;-57
2022/10/17 00:46:29;;;;;;;;;;;;;;;14.06;87.13;98636.38;5029718;28;19928;-57
2022/10/17 00:48:57;;;;;;;;;;;;;;;14.06;87.15;98633.66;5066301;28;19924;-57
2022/10/17 00:51:52;;;;;;;;;;;;;;;14.04;87.33;98638.63;5032853;28;20374;-57
2022/10/17 00:54:45;;;;;;;;;;;;;;;14.05;87.39;98640.22;5046342;28;19925;-58
2022/10/17 00:57:14;;;;;;;;;;;;;;;14.03;87.09;98637.00;5033196;28;19925;-57
2022/10/17 00:59:43;;;;;;;;;;;;;;;14.01;87.10;98639.25;5049843;28;20350;-57
2022/10/17 01:02:36;;;;;;;;;;;;;;;13.98;87.28;98634.41;5054350;28;19956;-57
2022/10/17 01:05:05;;;;;;;;;;;;;;;13.96;87.29;98644.88;5050999;28;19971;-57
2022/10/17 01:07:36;;;;;;;;;;;;;;;13.95;87.24;98643.22;5050639;28;19925;-57
2022/10/17 01:10:05;;;;;;;;;;;;;;;13.96;87.40;98642.13;5050239;28;19925;-57
2022/10/17 01:12:38;;;;;;;;;;;;;;;13.93;87.27;98648.22;5050361;28;19924;-57
2022/10/17 01:15:10;;;;;;;;;;;;;;;13.96;87.30;98646.78;5077699;28;20444;-57
2022/10/17 01:17:40;;;;;;;;;;;;;;;13.94;87.37;98649.81;5067685;28;21041;-57
2022/10/17 01:20:29;;;;;;;;;;;;;;;13.96;87.63;98647.59;5083031;28;20007;-57
2022/10/17 01:23:02;;;;;;;;;;;;;;;13.99;87.59;98646.16;5043959;28;19948;-57
2022/10/17 01:25:33;;;;;;;;;;;;;;;13.98;87.66;98648.06;5070787;28;19925;-57
2022/10/17 01:28:11;;;;;;;;;;;;;;;14.01;87.94;98647.47;5052881;28;19978;-57
2022/10/17 01:30:53;;;;;;;;;;;;;;;14.00;87.95;98643.09;5064239;28;19931;-57
2022/10/17 01:33:25;;;;;;;;;;;;;;;14.00;87.92;98645.81;5051533;28;20009;-57
2022/10/17 01:36:19;;;;;;;;;;;;;;;14.00;87.80;98651.28;5084562;28;20274;-58
2022/10/17 01:38:50;;;;;;;;;;;;;;;14.02;88.00;98649.06;5052731;28;20345;-58
2022/10/17 01:41:22;;;;;;;;;;;;;;;14.03;87.95;98644.41;5086609;28;19935;-57
2022/10/17 01:43:51;;;;;;;;;;;;;;;14.02;87.76;98651.00;5055241;28;20269;-58
2022/10/17 01:46:21;;;;;;;;;;;;;;;14.00;87.80;98645.81;5080978;28;19997;-57
2022/10/17 01:48:51;;;;;;;;;;;;;;;13.98;87.94;98645.34;5047765;28;19936;-57
2022/10/17 01:51:19;;;;;;;;;;;;;;;13.98;87.92;98642.63;5048092;28;19936;-57
2022/10/17 01:56:41;;;;;;;;;;;;;;;13.96;87.96;98647.59;5049645;28;19925;-57
2022/10/17 01:59:10;;;;;;;;;;;;;;;13.97;87.69;98648.41;5085132;28;20385;-57
2022/10/17 02:01:38;;;;;;;;;;;;;;;13.95;87.87;98645.97;5042816;28;20286;-57
2022/10/17 02:04:07;;;;;;;;;;;;;;;13.94;87.70;98644.34;5087155;28;19926;-57
2022/10/17 02:06:35;;;;;;;;;;;;;;;13.95;87.70;98637.75;5078148;28;19924;-57
2022/10/17 02:09:16;;;;;;;;;;;;;;;13.94;87.82;98640.81;5049503;28;19925;-57
2022/10/17 02:11:44;;;;;;;;;;;;;;;13.92;87.64;98635.69;5086172;28;20024;-57
2022/10/17 02:14:19;;;;;;;;;;;;;;;13.84;87.54;98634.50;5049916;28;19948;-57
2022/10/17 02:16:48;;;;;;;;;;;;;;;13.85;87.62;98629.88;5063947;28;19924;-57
2022/10/17 02:19:26;;;;;;;;;;;;;;;13.83;87.29;98638.38;5052736;28;19970;-57
2022/10/17 02:21:55;;;;;;;;;;;;;;;13.81;87.12;98637.09;5086263;28;19947;-57
2022/10/17 02:24:25;;;;;;;;;;;;;;;13.76;87.16;98642.69;5074576;28;19956;-56
2022/10/17 02:26:55;;;;;;;;;;;;;;;13.74;87.16;98636.72;5052553;28;19934;-57
2022/10/17 02:29:23;;;;;;;;;;;;;;;13.70;87.10;98633.03;5043904;28;19932;-56
2022/10/17 02:31:52;;;;;;;;;;;;;;;13.56;87.03;98614.78;5065470;28;19931;-57
2022/10/17 02:34:21;;;;;;;;;;;;;;;13.59;87.45;98627.81;5051036;28;19925;-57
2022/10/17 02:36:51;;;;;;;;;;;;;;;13.57;87.54;98632.78;5057191;28;20020;-57
2022/10/17 02:39:19;;;;;;;;;;;;;;;13.55;87.58;98628.75;5050926;28;19928;-57
2022/10/17 02:41:48;;;;;;;;;;;;;;;13.55;87.63;98631.50;5068936;28;20490;-58
2022/10/17 02:44:15;;;;;;;;;;;;;;;13.55;87.41;98632.28;5052398;28;20010;-57
2022/10/17 02:46:44;;;;;;;;;;;;;;;13.55;87.40;98631.50;5041266;28;20289;-57
2022/10/17 02:49:13;;;;;;;;;;;;;;;13.54;87.24;98630.69;5028355;28;19935;-57
2022/10/17 02:51:44;;;;;;;;;;;;;;;13.54;87.15;98632.63;5065162;28;20362;-57
2022/10/17 02:54:18;;;;;;;;;;;;;;;13.50;87.23;98639.81;5061581;28;19932;-57
2022/10/17 02:56:49;;;;;;;;;;;;;;;13.52;87.19;98637.56;5027598;28;19931;-57
2022/10/17 02:59:17;;;;;;;;;;;;;;;13.49;87.06;98632.75;5028917;28;20294;-57
2022/10/17 03:02:12;;;;;;;;;;;;;;;13.48;87.15;98640.13;5039030;28;19936;-57
2022/10/17 03:04:42;;;;;;;;;;;;;;;13.44;87.09;98647.31;5028798;28;20649;-57
2022/10/17 03:07:10;;;;;;;;;;;;;;;13.45;87.29;98642.66;5030282;28;19935;-57
2022/10/17 03:09:40;;;;;;;;;;;;;;;13.44;87.34;98647.31;5028223;28;20325;-57
2022/10/17 03:12:10;;;;;;;;;;;;;;;13.40;87.10;98640.06;5028858;28;19929;-57
2022/10/17 03:14:37;;;;;;;;;;;;;;;13.39;87.05;98643.91;5033012;28;19933;-57
2022/10/17 03:17:06;;;;;;;;;;;;;;;13.37;87.34;98655.16;5028451;28;19926;-57
2022/10/17 03:19:36;;;;;;;;;;;;;;;13.37;87.22;98657.88;5066338;28;20705;-57
2022/10/17 03:22:04;;;;;;;;;;;;;;;13.33;87.27;98656.88;5030473;28;19971;-57
2022/10/17 03:24:34;;;;;;;;;;;;;;;13.30;87.17;98657.50;5066730;28;19971;-57
2022/10/17 03:27:03;;;;;;;;;;;;;;;13.28;87.22;98659.75;5032682;28;19925;-57
2022/10/17 03:29:31;;;;;;;;;;;;;;;13.28;86.97;98660.53;5063017;28;20016;-57
2022/10/17 03:32:00;;;;;;;;;;;;;;;13.27;87.13;98669.06;5058208;28;19933;-57
2022/10/17 03:34:27;;;;;;;;;;;;;;;13.24;87.08;98675.91;5033871;28;19944;-58
2022/10/17 03:36:58;;;;;;;;;;;;;;;13.19;87.17;98678.75;5034490;28;19932;-56
2022/10/17 03:39:28;;;;;;;;;;;;;;;13.22;87.09;98680.09;5030534;28;19925;-57
2022/10/17 03:41:56;;;;;;;;;;;;;;;13.19;87.21;98672.47;5032259;28;19925;-57
2022/10/17 03:44:25;;;;;;;;;;;;;;;13.17;87.50;98674.72;5030901;28;20020;-57
2022/10/17 03:49:46;;;;;;;;;;;;;;;13.14;87.50;98678.84;5027738;28;19925;-57
2022/10/17 03:52:17;;;;;;;;;;;;;;;13.17;87.45;98680.19;5031524;28;19932;-57
2022/10/17 03:54:44;;;;;;;;;;;;;;;13.16;87.34;98689.47;5031051;28;19948;-57
2022/10/17 03:57:12;;;;;;;;;;;;;;;13.13;87.46;98690.09;5046609;28;19973;-56
2022/10/17 03:59:46;;;;;;;;;;;;;;;13.15;87.15;98687.84;5064821;28;19929;-57
2022/10/17 04:02:17;;;;;;;;;;;;;;;13.09;87.29;98687.97;5026608;28;19964;-57
2022/10/17 04:04:45;;;;;;;;;;;;;;;13.10;87.01;98692.34;5059047;28;20072;-57
2022/10/17 04:07:13;;;;;;;;;;;;;;;13.08;87.24;98693.75;5029546;28;20051;-57
2022/10/17 04:09:44;;;;;;;;;;;;;;;13.00;87.30;98697.22;5045933;28;19956;-57
2022/10/17 04:12:16;;;;;;;;;;;;;;;12.93;87.39;98691.34;5030409;28;19948;-57
2022/10/17 04:14:46;;;;;;;;;;;;;;;12.95;87.16;98698.13;5030675;28;19931;-57
2022/10/17 04:17:16;;;;;;;;;;;;;;;12.92;87.45;98687.81;5057734;28;19933;-57
2022/10/17 04:19:44;;;;;;;;;;;;;;;12.86;87.34;98699.97;5028443;28;20023;-57
2022/10/17 04:22:15;;;;;;;;;;;;;;;12.84;87.25;98694.03;5063736;28;19925;-57
2022/10/17 04:24:43;;;;;;;;;;;;;;;12.70;87.97;98704.16;5028419;28;20317;-58
2022/10/17 04:27:24;;;;;;;;;;;;;;;12.77;87.41;98694.41;5030170;28;19948;-58
2022/10/17 04:29:54;;;;;;;;;;;;;;;12.82;87.38;98705.22;5030025;28;19929;-57
2022/10/17 04:32:25;;;;;;;;;;;;;;;12.74;87.40;98705.16;5037602;28;19926;-58
2022/10/17 04:34:58;;;;;;;;;;;;;;;12.76;87.34;98703.72;5029702;28;19937;-58
2022/10/17 04:37:28;;;;;;;;;;;;;;;12.82;87.33;98707.94;5028656;28;19941;-58
2022/10/17 04:39:57;;;;;;;;;;;;;;;12.78;87.00;98700.69;5026159;28;20275;-58
2022/10/17 04:42:30;;;;;;;;;;;;;;;12.71;87.30;98705.75;5046500;28;19925;-58
2022/10/17 04:44:59;;;;;;;;;;;;;;;12.76;87.43;98703.72;5044759;28;19983;-58
2022/10/17 04:47:27;;;;;;;;;;;;;;;12.79;87.44;98707.78;5039015;28;19965;-57
2022/10/17 04:49:55;;;;;;;;;;;;;;;12.76;87.48;98705.66;5029546;28;19979;-58
2022/10/17 04:52:24;;;;;;;;;;;;;;;12.77;87.33;98701.78;5031314;28;20039;-58
2022/10/17 04:54:52;;;;;;;;;;;;;;;12.80;87.22;98698.47;5032838;28;19925;-58
2022/10/17 04:57:21;;;;;;;;;;;;;;;12.81;87.28;98702.81;5028013;28;20387;-58
2022/10/17 04:59:56;;;;;;;;;;;;;;;12.79;86.99;98710.50;5030853;28;19931;-57
2022/10/17 05:02:46;;;;;;;;;;;;;;;12.80;87.05;98712.09;5039539;28;19925;-58
2022/10/17 05:05:15;;;;;;;;;;;;;;;12.71;87.13;98708.47;5049598;28;19951;-58
2022/10/17 05:07:47;;;;;;;;;;;;;;;12.70;87.32;98706.88;5051105;28;20432;-58
2022/10/17 05:10:20;;;;;;;;;;;;;;;12.61;87.28;98712.22;5081923;28;20285;-58
2022/10/17 05:12:51;;;;;;;;;;;;;;;12.58;87.21;98718.31;5058448;28;19939;-58
2022/10/17 05:15:22;;;;;;;;;;;;;;;12.65;87.19;98707.78;5075214;28;20202;-57
2022/10/17 05:17:55;;;;;;;;;;;;;;;12.64;87.17;98705.38;5048922;28;19925;-57
2022/10/17 05:20:25;;;;;;;;;;;;;;;12.59;87.13;98704.34;5062908;28;20357;-58
2022/10/17 05:22:53;;;;;;;;;;;;;;;12.64;86.81;98711.63;5082875;28;19929;-58
2022/10/17 05:25:23;;;;;;;;;;;;;;;12.62;87.06;98715.75;5048606;28;20078;-57
2022/10/17 05:30:43;;;;;;;;;;;;;;;12.57;86.79;98720.22;5054121;28;20446;-58
2022/10/17 05:33:13;;;;;;;;;;;;;;;12.60;86.61;98721.53;5047108;28;19933;-58
2022/10/17 05:35:41;;;;;;;;;;;;;;;12.61;86.65;98727.78;5041809;28;20094;-58
2022/10/17 05:38:09;;;;;;;;;;;;;;;12.61;86.52;98727.78;5045156;28;20397;-58
2022/10/17 05:40:40;;;;;;;;;;;;;;;12.55;86.47;98733.31;5049402;28;20019;-58
2022/10/17 05:43:08;;;;;;;;;;;;;;;12.52;86.39;98724.97;5055694;28;19990;-58
2022/10/17 05:45:36;;;;;;;;;;;;;;;12.52;86.78;98730.44;5046793;28;20286;-58
2022/10/17 05:48:08;;;;;;;;;;;;;;;12.53;86.76;98726.59;5046634;28;19925;-58
2022/10/17 05:50:40;;;;;;;;;;;;;;;12.39;87.05;98723.03;5027532;28;20021;-58
2022/10/17 05:53:13;;;;;;;;;;;;;;;12.41;87.17;98729.00;5031990;28;20541;-58
2022/10/17 05:55:46;;;;;;;;;;;;;;;12.36;87.24;98735.38;5052630;28;19936;-58
2022/10/17 05:58:40;;;;;;;;;;;;;;;12.43;87.16;98738.50;5059733;28;19975;-58
2022/10/17 06:01:42;;;;;;;;;;;;;;;12.46;86.98;98737.88;5058658;28;19951;-58
2022/10/17 06:04:10;;;;;;;;;;;;;;;12.42;86.77;98747.78;5066748;28;19979;-58
2022/10/17 06:06:40;;;;;;;;;;;;;;;12.41;87.01;98746.16;5058856;28;19959;-58
2022/10/17 06:09:08;;;;;;;;;;;;;;;12.41;86.94;98748.91;5041063;28;20326;-58
2022/10/17 06:11:39;;;;;;;;;;;;;;;12.30;87.27;98755.63;5059097;28;20437;-58
2022/10/17 06:14:10;;;;;;;;;;;;;;;12.32;86.67;98756.16;5051014;28;19974;-58
2022/10/17 06:16:39;;;;;;;;;;;;;;;12.35;86.68;98758.25;5032388;28;20023;-59
2022/10/17 06:19:07;;;;;;;;;;;;;;;12.35;86.69;98763.72;5049075;28;19992;-58
2022/10/17 06:21:38;;;;;;;;;;;;;;;12.42;86.78;98763.34;5051520;28;20031;-58
2022/10/17 06:24:14;;;;;;;;;;;;;;;12.47;86.76;98764.03;5034995;28;19932;-57
2022/10/17 06:26:42;;;;;;;;;;;;;;;12.47;86.66;98772.22;5046428;28;20013;-58
2022/10/17 06:29:13;;;;;;;;;;;;;;;12.38;87.02;98773.22;5045098;28;19933;-58
2022/10/17 06:31:52;;;;;;;;;;;;;;;12.47;86.67;98783.13;5044143;28;19948;-58
2022/10/17 06:34:22;;;;;;;;;;;;;;;12.51;87.04;98783.28;5048888;28;19929;-57
2022/10/17 06:36:50;;;;;;;;;;;;;;;12.54;87.00;98786.22;5045194;28;19925;-58
2022/10/17 06:39:20;;;;;;;;;;;;;;;12.53;86.63;98792.81;5049210;28;19932;-58
2022/10/17 06:41:59;;;;;;;;;;;;;;;12.64;86.65;98784.44;5065139;28;19933;-58
2022/10/17 06:45:13;;;;;;;;;;;;;;;12.69;86.66;98790.59;5052943;28;19924;-58
2022/10/17 06:48:06;;;;;;;;;;;;;;;12.71;86.31;98788.34;5067095;28;19944;-58
2022/10/17 06:50:42;;;;;;;;;;;;;;;12.76;85.78;98795.63;5052105;28;19939;-58
2022/10/17 06:53:14;;;;;;;;;;;;;;;12.65;86.43;98795.03;5059187;28;19924;-58
2022/10/17 06:55:56;;;;;;;;;;;;;;;12.69;86.54;98800.69;5067101;28;19967;-58
2022/10/17 06:58:40;;;;;;;;;;;;;;;12.73;86.37;98802.50;5046462;28;19980;-58
2022/10/17 07:01:22;;;;;;;;;;;;;;;12.77;86.12;98814.41;5046953;28;19924;-57
2022/10/17 07:03:54;;;;;;;;;;;;;;;12.80;86.17;98813.00;5081962;28;20066;-58
2022/10/17 07:06:23;;;;;;;;;;;;;;;12.84;86.15;98814.00;5062484;28;19929;-57
2022/10/17 07:08:54;;;;;;;;;;;;;;;12.93;85.84;98812.16;5055989;28;19933;-58
2022/10/17 07:11:26;;;;;;;;;;;;;;;12.96;85.98;98822.47;5056276;28;19985;-57
2022/10/17 07:13:53;;;;;;;;;;;;;;;13.04;85.67;98824.47;5062313;28;19954;-58
2022/10/17 07:16:22;;;;;;;;;;;;;;;13.08;85.54;98825.50;5069988;28;19932;-57
2022/10/17 07:18:57;;;;;;;;;;;;;;;13.15;85.90;98813.34;5034119;28;19925;-58
2022/10/17 07:24:18;;;;;;;;;;;;;;;13.26;85.36;98828.41;5040715;28;19940;-58
2022/10/17 07:26:54;;;;;;;;;;;;;;;13.24;85.82;98822.47;5070253;28;19956;-58
2022/10/17 07:29:22;;;;;;;;;;;;;;;13.32;85.85;98821.75;5033293;28;19925;-57
2022/10/17 07:31:59;;;;;;;;;;;;;;;13.38;85.73;98825.97;5031109;28;20381;-58
2022/10/17 07:34:30;;;;;;;;;;;;;;;13.45;85.46;98817.38;5035285;28;19924;-58
2022/10/17 07:36:58;;;;;;;;;;;;;;;13.50;85.38;98822.72;5032519;28;20019;-57
2022/10/17 07:39:27;;;;;;;;;;;;;;;13.55;85.57;98820.66;5067687;28;19974;-58
2022/10/17 07:41:57;;;;;;;;;;;;;;;13.62;85.46;98823.78;5062487;28;19975;-58
2022/10/17 07:44:25;;;;;;;;;;;;;;;13.65;85.30;98833.28;5066973;28;19947;-58
2022/10/17 07:47:19;;;;;;;;;;;;;;;13.70;85.44;98829.63;5062131;28;20384;-58
2022/10/17 07:49:49;;;;;;;;;;;;;;;13.75;85.27;98829.50;5065812;28;19925;-58
2022/10/17 07:52:18;;;;;;;;;;;;;;;13.82;85.27;98824.41;5030060;28;19994;-58
2022/10/17 07:54:45;;;;;;;;;;;;;;;13.89;84.84;98827.50;5052171;28;20011;-58
2022/10/17 07:57:15;;;;;;;;;;;;;;;13.95;85.20;98826.25;5033249;28;19937;-58
2022/10/17 07:59:44;;;;;;;;;;;;;;;14.03;85.05;98833.72;5050421;28;19986;-58
2022/10/17 08:02:12;;;;;;;;;;;;;;;14.13;85.03;98838.13;5046887;28;19932;-58
2022/10/17 08:04:40;;;;;;;;;;;;;;;14.20;84.69;98840.41;5051239;28;19924;-58
2022/10/17 08:07:08;;;;;;;;;;;;;;;14.24;84.93;98839.47;5049382;28;19932;-58
2022/10/17 08:09:48;;;;;;;;;;;;;;;14.28;84.98;98845.94;5062985;28;19939;-57
2022/10/17 08:12:17;;;;;;;;;;;;;;;14.36;84.82;98842.44;5050977;28;19932;-58
2022/10/17 08:14:45;;;;;;;;;;;;;;;14.44;84.81;98842.81;5049032;28;19931;-58
2022/10/17 08:17:13;;;;;;;;;;;;;;;14.47;84.59;98836.72;5051026;28;19936;-58
2022/10/17 08:19:41;;;;;;;;;;;;;;;14.53;84.88;98835.47;5045757;28;19929;-58
2022/10/17 08:22:09;;;;;;;;;;;;;;;14.59;84.67;98837.75;5052353;28;19931;-58
2022/10/17 08:24:37;;;;;;;;;;;;;;;14.73;84.48;98831.38;5050953;28;19956;-58
2022/10/17 08:27:10;;;;;;;;;;;;;;;14.80;84.33;98837.19;5047689;28;20091;-58
2022/10/17 08:29:39;;;;;;;;;;;;;;;14.93;84.12;98833.56;5051683;28;19924;-58
2022/10/17 08:32:08;;;;;;;;;;;;;;;15.03;84.07;98836.00;5049001;28;19924;-58
2022/10/17 08:34:36;;;;;;;;;;;;;;;15.12;83.93;98839.53;5051909;28;19929;-58
2022/10/17 08:37:04;;;;;;;;;;;;;;;15.22;84.01;98837.63;5052165;28;19928;-58
2022/10/17 08:39:32;;;;;;;;;;;;;;;15.33;83.75;98830.72;5050767;28;19960;-55
2022/10/17 08:42:03;;;;;;;;;;;;;;;15.44;83.41;98837.50;5050735;28;19931;-55
2022/10/17 08:47:34;;;;;;;;;;;;;;;15.70;82.51;98824.66;5047832;28;19925;-58
2022/10/17 08:50:05;;;;;;;;;;;;;;;15.85;81.91;98822.56;5048650;28;19925;-58
2022/10/17 08:52:36;;;;;;;;;;;;;;;16.00;81.74;98827.56;5050267;28;19925;-55
2022/10/17 08:55:05;;;;;;;;;;;;;;;16.12;81.19;98819.47;5053642;28;19933;-56
2022/10/17 08:57:32;;;;;;;;;;;;;;;16.26;80.83;98826.72;5050332;28;19925;-56
2022/10/17 09:00:01;;;;;;;;;;;;;;;16.33;80.58;98827.81;5050053;28;19928;-56
2022/10/17 09:02:35;;;;;;;;;;;;;;;16.39;80.37;98823.75;5047387;28;19925;-56
2022/10/17 09:05:09;;;;;;;;;;;;;;;16.56;79.59;98817.41;5052466;28;19928;-58
2022/10/17 09:07:40;;;;;;;;;;;;;;;16.64;79.11;98813.84;5047751;28;20165;-58
2022/10/17 09:10:10;;;;;;;;;;;;;;;16.74;78.72;98819.00;5052281;28;19947;-58
2022/10/17 09:12:40;;;;;;;;;;;;;;;16.84;78.32;98811.53;5051036;28;19925;-58
2022/10/17 09:15:12;;;;;;;;;;;;;;;16.95;77.69;98815.50;5042629;28;19956;-56
2022/10/17 09:17:48;;;;;;;;;;;;;;;17.09;76.94;98812.50;5069532;28;19951;-56
2022/10/17 09:20:18;;;;;;;;;;;;;;;17.17;76.43;98814.41;5067247;28;19924;-56
2022/10/17 09:22:47;;;;;;;;;;;;;;;17.24;76.13;98812.72;5062939;28;19928;-57
2022/10/17 09:25:19;;;;;;;;;;;;;;;17.35;76.21;98820.56;5067780;28;19963;-56
2022/10/17 09:30:41;;;;;;;;;;;;;;;17.54;75.37;98818.19;5065137;28;19924;-57
2022/10/17 09:33:15;;;;;;;;;;;;;;;17.64;74.53;98817.78;5071048;28;19977;-57
2022/10/17 09:35:55;;;;;;;;;;;;;;;17.70;74.25;98816.44;5053512;28;19968;-57
2022/10/17 09:38:24;;;;;;;;;;;;;;;17.77;73.78;98816.72;5070422;28;19931;-57
2022/10/17 09:40:52;;;;;;;;;;;;;;;17.89;73.31;98823.41;5069063;28;19924;-57
2022/10/17 09:43:23;;;;;;;;;;;;;;;17.94;73.21;98817.69;5070617;28;20016;-59
2022/10/17 09:45:54;;;;;;;;;;;;;;;17.99;72.63;98812.78;5063839;28;19925;-58
2022/10/17 09:48:32;;;;;;;;;;;;;;;17.99;73.34;98817.50;5052437;28;20403;-56
2022/10/17 09:51:00;;;;;;;;;;;;;;;18.06;72.94;98813.06;5070921;28;19924;-57
2022/10/17 09:53:49;;;;;;;;;;;;;;;18.16;72.71;98813.78;5066122;28;19925;-59
2022/10/17 09:56:18;;;;;;;;;;;;;;;18.23;72.39;98814.84;5070350;28;19924;-59
2022/10/17 09:58:46;;;;;;;;;;;;;;;18.32;71.50;98814.72;5051830;28;19936;-58
2022/10/17 10:01:16;;;;;;;;;;;;;;;18.38;71.31;98820.84;5065307;28;20274;-57
2022/10/17 10:03:49;;;;;;;;;;;;;;;18.50;69.86;98813.41;5070154;28;20043;-59
2022/10/17 10:06:18;;;;;;;;;;;;;;;18.58;69.66;98819.94;5059399;28;19924;-59
2022/10/17 10:08:49;;;;;;;;;;;;;;;18.61;69.89;98821.22;5068874;28;19936;-57
2022/10/17 10:11:20;;;;;;;;;;;;;;;18.68;69.24;98822.28;5065912;28;20370;-57
2022/10/17 10:13:48;;;;;;;;;;;;;;;18.70;68.79;98811.75;5044760;28;19925;-57
2022/10/17 10:16:18;;;;;;;;;;;;;;;18.76;68.72;98815.88;5064725;28;19924;-57
2022/10/17 10:18:46;;;;;;;;;;;;;;;18.81;68.64;98820.34;5057975;28;19925;-57
2022/10/17 10:21:18;;;;;;;;;;;;;;;18.83;68.36;98815.28;5048902;28;20023;-57
2022/10/17 10:24:02;;;;;;;;;;;;;;;18.92;67.93;98809.69;5074455;28;19928;-57
2022/10/17 10:26:31;;;;;;;;;;;;;;;18.96;67.70;98819.66;5069393;28;20339;-58
2022/10/17 10:29:00;;;;;;;;;;;;;;;19.06;66.84;98815.63;5069220;28;20381;-57
2022/10/17 10:34:23;;;;;;;;;;;;;;;19.18;66.18;98812.09;5051210;28;19931;-57
2022/10/17 10:37:02;;;;;;;;;;;;;;;19.19;66.14;98819.19;5054689;28;19930;-57
2022/10/17 10:39:32;;;;;;;;;;;;;;;19.24;65.51;98813.44;5053900;28;19952;-57
2022/10/17 10:42:00;;;;;;;;;;;;;;;19.31;65.37;98814.47;5053321;28;19928;-57
2022/10/17 10:44:29;;;;;;;;;;;;;;;19.35;65.62;98809.88;5051782;28;19925;-57
2022/10/17 10:47:22;;;;;;;;;;;;;;;19.42;64.78;98811.22;5050842;28;20292;-57
2022/10/17 10:49:52;;;;;;;;;;;;;;;19.51;64.28;98803.63;5053761;28;19925;-56
2022/10/17 10:52:27;;;;;;;;;;;;;;;19.57;64.45;98807.75;5054028;28;19924;-57
2022/10/17 10:55:22;;;;;;;;;;;;;;;19.66;64.26;98800.19;5053777;28;20382;-57
2022/10/17 10:57:51;;;;;;;;;;;;;;;19.75;63.60;98792.53;5048819;28;20015;-58
2022/10/17 11:00:20;;;;;;;;;;;;;;;19.79;64.07;98801.72;5047177;28;19931;-58
2022/10/17 11:02:51;;;;;;;;;;;;;;;19.86;63.64;98792.84;5043262;28;19931;-57
2022/10/17 11:05:22;;;;;;;;;;;;;;;19.88;63.06;98791.34;5054166;28;20366;-57
2022/10/17 11:07:54;;;;;;;;;;;;;;;19.94;63.15;98796.63;5053783;28;19935;-57
2022/10/17 11:10:23;;;;;;;;;;;;;;;20.00;63.03;98784.19;5063795;28;19925;-56
2022/10/17 11:12:52;;;;;;;;;;;;;;;20.01;63.07;98788.53;5050314;28;19925;-58
2022/10/17 11:15:22;;;;;;;;;;;;;;;20.06;63.09;98788.28;5049509;28;20023;-59
2022/10/17 11:17:52;;;;;;;;;;;;;;;20.18;62.67;98788.22;5074168;28;20007;-57
2022/10/17 11:20:22;;;;;;;;;;;;;;;20.26;62.75;98781.72;5072761;28;19924;-58
2022/10/17 11:22:52;;;;;;;;;;;;;;;20.38;62.13;98781.66;5052323;28;19931;-57
2022/10/17 11:25:23;;;;;;;;;;;;;;;20.47;61.73;98775.19;5071040;28;20039;-59
2022/10/17 11:28:15;;;;;;;;;;;;;;;20.55;61.14;98777.75;5073365;28;20016;-59
2022/10/17 11:30:46;;;;;;;;;;;;;;;20.60;61.18;98779.47;5047269;28;19936;-60
2022/10/17 11:33:16;;;;;;;;;;;;;;;20.63;61.52;98785.09;5066106;28;19932;-58
2022/10/17 11:35:45;;;;;;;;;;;;;;;20.71;61.24;98780.53;5067965;28;19925;-57
2022/10/17 11:41:35;;;;;;;;;;;;;;;20.85;61.24;98775.34;5068365;28;19932;-57
2022/10/17 11:44:05;;;;;;;;;;;;;;;20.89;60.32;98778.22;5069639;28;20353;-57
2022/10/17 11:46:34;;;;;;;;;;;;;;;20.83;60.70;98777.69;5080060;28;19947;-58
2022/10/17 11:49:27;;;;;;;;;;;;;;;20.85;60.97;98774.56;5067906;28;19925;-57
2022/10/17 11:52:20;;;;;;;;;;;;;;;20.86;60.57;98771.44;5071022;28;20027;-57
2022/10/17 11:55:34;;;;;;;;;;;;;;;20.85;60.75;98766.28;5069717;28;19977;-59
2022/10/17 11:58:09;;;;;;;;;;;;;;;20.82;60.96;98778.81;5070226;28;19929;-59
2022/10/17 12:00:44;;;;;;;;;;;;;;;20.86;61.71;98781.69;5065019;28;19925;-59
2022/10/17 12:03:34;;;;;;;;;;;;;;;20.93;60.16;98781.84;5063925;28;19948;-59
2022/10/17 12:06:04;;;;;;;;;;;;;;;20.93;59.65;98774.38;5070040;28;19929;-59
2022/10/17 12:08:33;;;;;;;;;;;;;;;20.92;59.66;98771.94;5071780;28;19924;-59
2022/10/17 12:11:03;;;;;;;;;;;;;;;20.93;59.35;98773.53;5073149;28;19924;-61
2022/10/17 12:13:48;;;;;;;;;;;;;;;20.85;60.75;98772.59;5071818;28;19924;-59
2022/10/17 12:16:34;;;;;;;;;;;;;;;20.84;60.35;98772.97;5067001;28;20282;-59
2022/10/17 12:19:15;;;;;;;;;;;;;;;20.78;61.11;98766.09;5065585;28;19925;-60
2022/10/17 12:21:53;;;;;;;;;;;;;;;20.77;60.49;98765.28;5058715;28;19960;-59
2022/10/17 12:24:24;;;;;;;;;;;;;;;20.81;60.16;98776.41;5070692;28;20428;-59
2022/10/17 12:26:52;;;;;;;;;;;;;;;20.88;59.99;98771.09;5072234;28;20015;-59
2022/10/17 12:29:26;;;;;;;;;;;;;;;20.90;60.02;98775.06;5087782;28;19931;-59
2022/10/17 12:31:54;;;;;;;;;;;;;;;20.95;59.71;98775.97;5067291;28;19979;-59
2022/10/17 12:34:22;;;;;;;;;;;;;;;20.99;59.22;98779.63;5074840;28;19924;-59
2022/10/17 12:36:50;;;;;;;;;;;;;;;21.02;59.36;98771.41;5069704;28;20355;-59
2022/10/17 12:39:49;;;;;;;;;;;;;;;21.03;59.36;98773.00;5072709;28;20023;-59
2022/10/17 12:42:30;;;;;;;;;;;;;;;21.04;60.33;98773.78;5071397;28;20350;-60
2022/10/17 12:45:00;;;;;;;;;;;;;;;21.04;60.10;98769.09;5068846;28;19928;-60
2022/10/17 12:47:37;;;;;;;;;;;;;;;21.09;60.23;98770.75;5074104;28;19924;-59
2022/10/17 12:50:23;;;;;;;;;;;;;;;21.15;60.08;98764.63;5072051;28;19925;-60
2022/10/17 12:52:54;;;;;;;;;;;;;;;21.20;59.85;98755.25;5063175;28;19932;-59
2022/10/17 12:55:23;;;;;;;;;;;;;;;21.22;59.89;98752.09;5069963;28;19939;-58
2022/10/17 12:57:54;;;;;;;;;;;;;;;21.27;59.83;98754.59;5070881;28;19977;-60
2022/10/17 13:00:26;;;;;;;;;;;;;;;21.26;59.83;98751.03;5063914;28;20415;-59
2022/10/17 13:02:55;;;;;;;;;;;;;;;21.29;59.51;98749.50;5076076;28;19928;-59
2022/10/17 13:05:26;;;;;;;;;;;;;;;21.25;59.21;98752.16;5071195;28;19947;-58
2022/10/17 13:07:53;;;;;;;;;;;;;;;21.24;59.23;98753.34;5051020;28;20739;-58
2022/10/17 13:10:22;;;;;;;;;;;;;;;21.21;59.40;98745.78;5068126;28;19924;-60
2022/10/17 13:12:50;;;;;;;;;;;;;;;21.17;59.52;98751.22;5053146;28;20019;-60
2022/10/17 13:15:19;;;;;;;;;;;;;;;21.11;59.79;98746.34;5062344;28;19924;-59
2022/10/17 13:17:56;;;;;;;;;;;;;;;21.09;59.43;98749.47;5050418;28;20289;-59
2022/10/17 13:20:27;;;;;;;;;;;;;;;21.09;59.60;98741.19;5034723;28;19924;-59
2022/10/17 13:22:57;;;;;;;;;;;;;;;21.06;60.12;98741.91;5050891;28;19928;-59
2022/10/17 13:25:26;;;;;;;;;;;;;;;21.11;60.47;98747.16;5053454;28;19925;-60
2022/10/17 13:28:19;;;;;;;;;;;;;;;21.15;60.55;98747.25;5053892;28;19929;-57
2022/10/17 13:30:49;;;;;;;;;;;;;;;21.18;60.35;98747.28;5050125;28;19925;-57
2022/10/17 13:33:30;;;;;;;;;;;;;;;21.27;60.45;98747.09;5067235;28;19925;-58
2022/10/17 13:35:59;;;;;;;;;;;;;;;21.30;60.60;98749.16;5068540;28;19924;-57
2022/10/17 13:38:28;;;;;;;;;;;;;;;21.27;60.49;98754.59;5069686;28;20018;-58
2022/10/17 13:40:56;;;;;;;;;;;;;;;21.28;59.78;98756.97;5051852;28;19964;-58